ADDS METAR Data INFO
IDs: Format: Raw Decoded Include TAF

Data at: 1120 UTC 17 Jul 2018

KBAX 171115Z AUTO 00000KT 10SM CLR 13/13 A2997 RMK AO2 T01310125
KBAX 171055Z AUTO 00000KT 2 1/2SM BR CLR 12/12 A2996 RMK AO2 VIS 1 1/4V5 T01200116
KBAX 171035Z AUTO 00000KT 10SM CLR 12/11 A2995 RMK AO2 T01150109
KBAX 171015Z AUTO 00000KT 10SM CLR 12/12 A2995 RMK AO2 T01170115
KBAX 170956Z AUTO 00000KT 10SM CLR 12/12 A2995 RMK AO2 T01230120
KBAX 170955Z AUTO 00000KT 10SM CLR 12/12 A2995 RMK AO2 T01230120
KBAX 170935Z AUTO 00000KT 10SM CLR 12/12 A2995 RMK AO2 T01230121
KBAX 170915Z AUTO 00000KT 10SM CLR 13/12 A2994 RMK AO2 T01280121
KBAX 170856Z AUTO 00000KT 10SM CLR 13/12 A2994 RMK AO2 T01290121
KBAX 170855Z AUTO 00000KT 10SM CLR 13/12 A2994 RMK AO2 T01300122
KBAX 170835Z AUTO 00000KT 10SM CLR 13/12 A2994 RMK AO2 T01310120
KBAX 170815Z AUTO 00000KT 10SM CLR 14/13 A2993 RMK AO2 T01410125
KBAX 170755Z AUTO 00000KT 10SM CLR 14/12 A2993 RMK AO2 T01410121
KBAX 170735Z AUTO 00000KT 10SM CLR 15/13 A2993 RMK AO2 T01510127
KBAX 170715Z AUTO 00000KT 10SM CLR 16/13 A2993 RMK AO2 T01620128
KBAX 170655Z AUTO 03003KT 10SM CLR 17/13 A2993 RMK AO2 T01710129
KBAX 170635Z AUTO 02004KT 10SM CLR 18/13 A2993 RMK AO2 T01750130
KBAX 170615Z AUTO 02006KT 10SM CLR 19/13 A2992 RMK AO2 T01850131
KBAX 170555Z AUTO 03005KT 10SM SCT034 SCT065 19/14 A2992 RMK AO2 T01890140 10255 20189 403200189
KBAX 170535Z AUTO 02007KT 10SM BKN032 BKN045 20/15 A2992 RMK AO2 T01970153
KBAX 170515Z AUTO 02003KT 10SM BKN032 BKN045 BKN060 20/17 A2992 RMK AO2 T01950171
KBAX 170455Z AUTO 02004KT 10SM CLR 20/18 A2992 RMK AO2 T01980177
KBAX 170435Z AUTO 01005KT 10SM SCT065 21/19 A2991 RMK AO2 T02060185
KBAX 170415Z AUTO 02005KT 10SM SCT013 SCT036 BKN065 21/20 A2990 RMK AO2 T02100196
KBAX 170355Z AUTO 03008KT 10SM SCT011 BKN028 OVC034 22/20 A2990 RMK AO2 T02150199
KBAX 170335Z AUTO 03007KT 10SM BKN029 BKN041 BKN055 23/21 A2990 RMK AO2 T02260206
KBAX 170316Z AUTO 35005KT 10SM SCT029 BKN037 BKN043 22/21 A2989 RMK AO2 T02200205
KBAX 170315Z AUTO 35005KT 10SM SCT029 SCT037 BKN043 22/21 A2989 RMK AO2 T02200205
KBAX 170255Z AUTO 33004KT 10SM SCT031 BKN037 BKN046 22/20 A2989 RMK AO2 T02240203
KBAX 170235Z AUTO 27004KT 10SM BKN031 BKN036 OVC070 23/20 A2988 RMK AO2 T02280203
KBAX 170216Z AUTO 00000KT 10SM SCT033 SCT050 BKN065 22/20 A2987 RMK AO2 T02230201
KBAX 170215Z AUTO 00000KT 10SM SCT033 SCT050 BKN065 22/20 A2987 RMK AO2 T02230200
KBAX 170155Z AUTO 27003KT 10SM SCT050 22/20 A2986 RMK AO2 T02200198
KBAX 170135Z AUTO 28003KT 10SM CLR 23/20 A2985 RMK AO2 T02300200
KBAX 170116Z AUTO 00000KT 10SM CLR 24/20 A2984 RMK AO2 T02370202
KBAX 170115Z AUTO 00000KT 10SM CLR 24/20 A2984 RMK AO2 T02370202
KBAX 170055Z AUTO 25003KT 10SM CLR 24/20 A2985 RMK AO2 T02430200
KBAX 170035Z AUTO 22003KT 10SM CLR 25/20 A2985 RMK AO2 T02500200
KBAX 170016Z AUTO 00000KT 10SM CLR 25/20 A2985 RMK AO2 T02520202
KBAX 170015Z AUTO 21003KT 10SM CLR 25/20 A2984 RMK AO2 T02520202
KBAX 162355Z AUTO 22005KT 10SM CLR 26/20 A2985 RMK AO2 T02590200 10320 20221
KBAX 162335Z AUTO 22003KT 10SM CLR 26/20 A2985 RMK AO2 T02630197
KBAX 162315Z AUTO 20004KT 10SM SCT070 26/20 A2985 RMK AO2 T02640199
KBAX 162255Z AUTO 21003KT 10SM SCT070 27/20 A2985 RMK AO2 T02650200
KBAX 162235Z AUTO 21003KT 10SM SCT035 26/20 A2985 RMK AO2 T02640200
KBAX 162215Z AUTO 19004KT 10SM SCT035 26/21 A2986 RMK AO2 T02550212
KBAX 162155Z AUTO 21003KT 10SM CLR 25/21 A2985 RMK AO2 T02500207
KBAX 162135Z AUTO 00000KT 10SM CLR 25/21 A2985 RMK AO2 T02470211
KBAX 162115Z AUTO 36008KT 10SM CLR 23/22 A2982 RMK AO2 T02340217
KBAX 162055Z AUTO 07005KT 10SM -RA SCT038 SCT050 BKN090 23/21 A2982 RMK AO2 T02280214
KBAX 162036Z AUTO 04004KT 10SM -RA SCT036 SCT045 BKN090 22/21 A2986 RMK AO2 T02240209
KBAX 162035Z AUTO 04004KT 10SM -RA SCT036 SCT045 BKN090 22/21 A2986 RMK AO2 T02240208
KBAX 162015Z AUTO 06004KT 10SM -RA SCT032 BKN065 OVC100 22/20 A2987 RMK AO2 T02230204
KBAX 161955Z AUTO 33015G25KT 10SM RA SCT032 SCT055 BKN090 25/20 A2988 RMK AO2 T02530201
KBAX 161936Z AUTO 31011KT 10SM SCT043 29/21 A2985 RMK AO2 T02880205
KBAX 161935Z AUTO 32011KT 10SM SCT043 29/21 A2985 RMK AO2 T02890205
KBAX 161915Z AUTO 33009KT 10SM CLR 30/20 A2985 RMK AO2 T02980204
KBAX 161855Z AUTO 30010G17KT 280V340 10SM SCT045 BKN055 BKN070 31/20 A2984 RMK AO2 T03100199
KBAX 161836Z AUTO 30007G14KT 280V350 10SM BKN045 BKN065 32/20 A2986 RMK AO2 T03170199
KBAX 161835Z AUTO 32007G14KT 280V350 10SM BKN045 BKN065 32/20 A2986 RMK AO2 T03180199
KBAX 161815Z AUTO 29010G14KT 270V350 10SM SCT045 SCT050 31/20 A2986 RMK AO2 T03140197
KBAX 161755Z AUTO 29007G15KT 250V020 10SM SCT046 SCT050 31/19 A2986 RMK AO2 T03130186 10313 20230
KBAX 161736Z AUTO 27010G16KT 250V310 10SM SCT046 SCT050 31/19 A2987 RMK AO2 T03110192
KBAX 161735Z AUTO 27011G16KT 240V300 10SM SCT046 SCT050 31/19 A2987 RMK AO2 T03100194
KBAX 161715Z AUTO 28007KT 150V360 10SM SCT044 31/19 A2988 RMK AO2 T03090192
KBAX 161655Z AUTO 24010G14KT 10SM SCT041 BKN049 30/19 A2990 RMK AO2 T02990193
KBAX 161636Z AUTO 25007G15KT 240V300 10SM BKN041 BKN048 BKN050 30/20 A2990 RMK AO2 T03000202
KBAX 161615Z AUTO 24011G16KT 10SM SCT037 SCT043 SCT120 30/20 A2990 RMK AO2 T02960202
KBAX 161555Z AUTO 23009G14KT 10SM SCT035 30/20 A2990 RMK AO2 T02970200
KBAX 161535Z AUTO 25008KT 10SM SCT029 SCT035 30/21 A2990 RMK AO2 T02950205
KBAX 161515Z AUTO 26008KT 240V310 10SM SCT029 29/21 A2990 RMK AO2 T02890205
KBAX 161455Z AUTO 24006KT 10SM CLR 28/21 A2990 RMK AO2 T02840210
KBAX 161435Z AUTO 27006KT 10SM SCT100 29/21 A2990 RMK AO2 T02870209
KBAX 161415Z AUTO 27005KT 10SM BKN100 28/21 A2990 RMK AO2 T02770211
KBAX 161356Z AUTO 24005KT 10SM BKN090 27/21 A2991 RMK AO2 T02730209
KBAX 161355Z AUTO 25005KT 10SM BKN090 27/21 A2991 RMK AO2 T02730209
KBAX 161335Z AUTO 24006KT 10SM SCT090 BKN110 26/21 A2991 RMK AO2 T02640213
KBAX 161315Z AUTO 23006KT 10SM BKN090 BKN120 26/21 A2992 RMK AO2 T02550214
KBAX 161255Z AUTO 23004KT 10SM BKN090 BKN120 25/21 A2992 RMK AO2 T02470214
KBAX 161235Z AUTO 24003KT 10SM OVC090 24/21 A2992 RMK AO2 T02390210
KBAX 161216Z AUTO 24004KT 10SM BKN090 24/21 A2992 RMK AO2 T02350209
KBAX 161215Z AUTO 24005KT 10SM BKN090 24/21 A2992 RMK AO2 T02350210
KBAX 161155Z AUTO 23003KT 10SM CLR 23/21 A2992 RMK AO2 T02290207 10229 20190
KBAX 161135Z AUTO 00000KT 10SM SCT120 23/21 A2992 RMK AO2 T02260206
KBAX 161116Z AUTO 00000KT 10SM SCT095 SCT110 22/21 A2992 RMK AO2 T02200205
KBAX 161115Z AUTO 00000KT 10SM SCT110 22/21 A2992 RMK AO2 T02200205
KBAX 161055Z AUTO 34003KT 10SM BKN100 22/20 A2992 RMK AO2 T02150204
KBAX 161035Z AUTO 10005KT 10SM SCT060 21/20 A2991 RMK AO2 T02110201
KBAX 161016Z AUTO 11005KT 10SM SCT060 SCT110 21/20 A2992 RMK AO2 T02080200
KBAX 161015Z AUTO 10005KT 10SM SCT060 SCT090 SCT110 21/20 A2992 RMK AO2 T02080200
KBAX 160955Z AUTO 18003KT 10SM SCT100 21/20 A2992 RMK AO2 T02120200
KBAX 160935Z AUTO 18004KT 10SM OVC100 21/20 A2992 RMK AO2 T02100199
KBAX 160915Z AUTO 10005KT 10SM BKN110 21/20 A2992 RMK AO2 T02050196
KBAX 160855Z AUTO 11006KT 10SM SCT120 21/20 A2992 RMK AO2 T02060197
KBAX 160835Z AUTO 00000KT 10SM CLR 21/20 A2992 RMK AO2 T02060195
KBAX 160815Z AUTO 16004KT 10SM CLR 21/20 A2992 RMK AO2 T02090197
KBAX 160755Z AUTO 12006KT 10SM CLR 20/19 A2992 RMK AO2 T01950188
KBAX 160735Z AUTO 00000KT 10SM CLR 19/18 A2993 RMK AO2 T01910184
KBAX 160715Z AUTO 00000KT 10SM CLR 20/19 A2993 RMK AO2 T01950190
KBAX 160655Z AUTO 11004KT 10SM SCT085 20/19 A2994 RMK AO2 T01960187
KBAX 160635Z AUTO 11005KT 10SM SCT085 20/19 A2995 RMK AO2 T01990190
KBAX 160615Z AUTO 11006KT 10SM CLR 21/20 A2995 RMK AO2 T02060195
KBAX 160555Z AUTO 13005KT 10SM CLR 20/19 A2995 RMK AO2 T01950188 10275 20195 403030165
KBAX 160536Z AUTO 00000KT 7SM CLR 20/19 A2995 RMK AO2 T01950189
KBAX 160535Z AUTO 00000KT 7SM CLR 20/19 A2995 RMK AO2 T01950189
KBAX 160515Z AUTO 10006KT 7SM CLR 20/20 A2995 RMK AO2 T02000195
KBAX 160455Z AUTO 11005KT 7SM CLR 20/20 A2995 RMK AO2 T02020196
KBAX 160436Z AUTO 12006KT 10SM CLR 21/20 A2995 RMK AO2 T02080200
KBAX 160435Z AUTO 11006KT 10SM CLR 21/20 A2995 RMK AO2 T02080200
KBAX 160415Z AUTO 12006KT 10SM CLR 20/19 A2995 RMK AO2 T01970189
KBAX 160355Z AUTO 11006KT 10SM CLR 21/20 A2996 RMK AO2 T02070195
KBAX 160335Z AUTO 10007KT 10SM CLR 21/19 A2996 RMK AO2 T02050192
KBAX 160315Z AUTO 14004KT 10SM CLR 21/19 A2997 RMK AO2 T02080190
KBAX 160256Z AUTO 10006KT 10SM CLR 21/19 A2996 RMK AO2 T02110188
KBAX 160255Z AUTO 10006KT 10SM CLR 21/19 A2996 RMK AO2 T02110188
KBAX 160235Z AUTO 11007KT 10SM CLR 22/19 A2996 RMK AO2 T02160191
KBAX 160215Z AUTO 13005KT 10SM CLR 22/19 A2996 RMK AO2 T02200190
KBAX 160156Z AUTO 13004KT 10SM CLR 23/19 A2996 RMK AO2 T02330192
KBAX 160155Z AUTO 14003KT 10SM CLR 23/19 A2995 RMK AO2 T02330191
KBAX 160135Z AUTO 11006KT 10SM CLR 23/19 A2995 RMK AO2 T02320186
KBAX 160115Z AUTO 00000KT 10SM CLR 25/18 A2995 RMK AO2 T02460181
KBAX 160056Z AUTO 10007KT 10SM CLR 25/17 A2995 RMK AO2 T02520174
KBAX 160055Z AUTO 11004KT 10SM CLR 25/18 A2995 RMK AO2 T02520175
KBAX 160035Z AUTO 09005KT 10SM CLR 26/17 A2995 RMK AO2 T02600170
KBAX 160015Z AUTO 10009KT 10SM CLR 27/17 A2995 RMK AO2 T02690173
KBAX 152356Z AUTO 10006KT 10SM CLR 28/18 A2995 RMK AO2 T02750182 10303 20270
KBAX 152355Z AUTO 09005KT 10SM CLR 28/18 A2995 RMK AO2 T02750184 10303 20270
KBAX 152335Z AUTO 09007KT 10SM CLR 27/20 A2995 RMK AO2 T02700200